East Aberdeen, Mississippi
Current Conditions -  °F | °C
As of 9:35 PM on Friday 28 Nov 2014 (Local Time) from KM40 Reporting Station
Clear Clear  
Wind Chill: 41°   Ceiling: Unl
Heat Index: 45°   Visibility: 10mi
Dew Point: 30°   Wind: 6mph
Humidity: 57%   Direction: 170°S
Pressure: 30.23"   Gusts: NA
Location:  33.8251°N, 88.6185°W
Report Text: KM40 290335Z AUTO 17005KT 10SM CLR 07/M01 A3023 RMK AO2
Loading
Personal Weather Stations






























Interactive Weather Map New forecast layout! Learn more

10-Day Weather Forecast

Advertisements
Track Severe Weather on mobile